Latest Weather Observations for Barimunya

IDW60801

Issued at 11:05 pm WST Wednesday 26 November 2014 (issued every 30 minutes, with the page automatically refreshed every 10 minutes)

About weather observations | Map of weather stations | Latest weather observations for WA | Other Formats
Station Details ID: 505053 Name: BARIMUNYA Lat: -22.67 Lon: 119.16 Height: 629.17 m
Data from the previous 72 hours. | See also: Recent months for locations in Western Australia
Date/Time
WST
Temp
°C
App
Temp
°C
Dew
Point
Rel
Hum
%
Delta-T
°C
Wind Press
QNH
hPa
Press
MSL
hPa
Rain
since 9 am
mm
Dir
 
Spd
km/h
Gust
km/h
Spd
kts
Gust
kts
26/11:00pm 20.6 19.2 17.0 80 2.3 SE 20 32 11 17 1014.1 1009.2 1.2
26/10:30pm 20.5 18.8 17.3 82 2.0 SSE 22 32 12 17 1014.5 1009.7 1.2
26/10:00pm 20.4 18.5 17.6 84 1.8 SSE 24 33 13 18 1015.2 1010.4 1.2
26/09:30pm 20.6 20.5 17.8 84 1.8 SSE 15 20 8 11 1015.3 1010.5 1.2
26/09:00pm 20.6 19.5 17.4 82 2.0 SW 19 26 10 14 1014.5 1009.7 0.6
26/08:32pm 23.9 20.5 15.7 60 5.1 NW 28 46 15 25 1015.2 1010.4 0.0
26/08:30pm 24.2 21.0 15.4 58 5.4 NW 26 37 14 20 1015.1 1010.3 0.0
26/08:25pm 23.9 23.6 15.4 59 5.2 SW 11 17 6 9 1014.5 1009.7 0.0
26/08:00pm 23.8 20.7 15.6 60 5.1 SSE 26 39 14 21 1012.4 1007.5 0.0
26/07:30pm 22.4 18.6 16.7 70 3.6 SSE 32 43 17 23 1011.5 1006.7 0.0
26/07:04pm 23.4 16.6 14.9 59 5.2 S 44 63 24 34 1011.6 1006.8 0.0
26/07:00pm 23.6 16.5 15.1 59 5.2 S 46 63 25 34 1011.2 1006.3 0.0
26/06:48pm 24.8 17.5 14.6 53 6.2 S 46 56 25 30 1011.1 1006.2 0.0
26/06:30pm 25.7 17.6 13.2 46 7.5 SSW 48 67 26 36 1010.9 1006.0 0.0
26/06:24pm 26.4 19.2 13.2 44 7.9 SW 43 65 23 35 1010.9 1006.0 0.0
26/06:18pm 27.3 20.9 13.3 42 8.5 WSW 39 50 21 27 1010.9 1006.0 0.0
26/06:15pm 28.1 23.3 12.8 38 9.2 SSW 30 54 16 29 1010.6 1005.7 0.0
26/06:14pm 28.3 23.9 13.0 39 9.3 SSW 28 39 15 21 1010.6 1005.7 0.0
26/06:00pm 33.4 31.3 11.3 26 13.3 NNE 13 20 7 11 1009.7 1004.8 0.0
26/05:30pm 33.6 30.3 10.9 25 13.6 NNE 19 28 10 15 1009.1 1004.2 0.0
26/05:00pm 33.9 30.7 11.1 25 13.7 NNE 19 24 10 13 1009.0 1004.1 0.0
26/04:30pm 34.2 30.5 11.4 25 13.8 NE 22 30 12 16 1008.6 1003.8 0.0
26/04:00pm 34.5 31.4 11.6 25 13.9 NNE 19 28 10 15 1009.3 1004.4 0.0
26/03:30pm 35.2 32.5 11.6 24 14.3 NE 17 32 9 17 1009.7 1004.8 0.0
26/03:00pm 35.1 33.1 11.5 24 14.3 NNE 13 20 7 11 1010.1 1005.3 0.0
26/02:30pm 35.4 32.3 11.7 23 14.5 ENE 19 28 10 15 1010.3 1005.5 0.0
26/02:00pm 34.2 32.7 12.0 26 13.5 E 11 24 6 13 1010.9 1006.0 0.0
26/01:30pm 34.1 31.6 12.4 26 13.3 N 17 24 9 13 1011.4 1006.5 0.0
26/01:00pm 33.6 30.0 12.0 27 13.1 NE 22 28 12 15 1011.9 1007.1 0.0
26/12:30pm 32.7 29.8 12.9 30 12.2 NE 20 30 11 16 1012.3 1007.4 0.0
26/12:00pm 32.2 29.3 13.9 33 11.4 NE 22 33 12 18 1012.7 1007.8 0.0
26/11:30am 31.9 28.9 13.6 32 11.3 NE 22 33 12 18 1013.0 1008.2 0.0
26/11:00am 29.7 27.3 13.9 38 9.7 NE 19 28 10 15 1013.4 1008.6 0.0
26/10:30am 28.8 26.5 14.2 40 9.0 NE 19 26 10 14 1014.0 1009.1 0.0
26/10:00am 28.8 26.4 13.9 40 9.2 ENE 19 26 10 14 1014.2 1009.3 0.0
26/09:30am 27.7 26.0 14.7 45 8.1 NE 17 24 9 13 1014.5 1009.7 0.0
26/09:00am 26.0 24.3 14.8 50 6.9 NE 17 26 9 14 1014.8 1010.0 4.6
26/08:30am 25.1 24.0 14.3 51 6.6 NE 13 20 7 11 1015.1 1010.3 4.6
26/08:00am 25.1 23.3 13.3 48 7.1 E 15 20 8 11 1015.0 1010.2 4.6
26/07:30am 25.4 24.4 13.3 47 7.3 E 11 22 6 12 1015.0 1010.2 4.6
26/07:00am 26.3 23.3 12.4 42 8.3 ENE 20 28 11 15 1014.7 1009.9 4.6
26/06:30am 23.6 22.6 14.6 57 5.5 ESE 13 20 7 11 1014.5 1009.7 4.4
26/06:00am 22.4 21.4 14.5 61 4.8 E 13 20 7 11 1014.6 1009.8 4.4
26/05:30am 21.5 19.8 14.6 65 4.2 ESE 17 22 9 12 1014.4 1009.5 4.4
26/05:00am 21.0 20.1 14.9 68 3.7 ESE 13 17 7 9 1014.1 1009.2 4.4
26/04:30am 21.4 19.1 14.6 65 4.1 E 20 32 11 17 1013.8 1009.0 4.4
26/04:00am 21.7 18.6 14.4 63 4.4 E 24 35 13 19 1013.6 1008.8 4.4
26/03:30am 20.9 18.7 15.0 69 3.6 ESE 20 32 11 17 1014.2 1009.3 4.4
26/03:00am 20.7 17.9 15.3 71 3.3 ESE 24 32 13 17 1014.1 1009.2 4.4
26/02:30am 20.9 18.4 15.2 70 3.5 ESE 22 30 12 16 1014.7 1009.9 4.4
26/02:00am 20.6 17.9 15.6 73 3.1 ESE 24 37 13 20 1015.0 1010.2 4.4
26/01:30am 20.6 18.3 15.8 74 2.9 ESE 22 28 12 15 1015.1 1010.3 4.4
26/01:00am 20.6 19.5 16.4 77 2.6 ESE 17 22 9 12 1015.9 1011.1 4.4
26/12:30am 20.2 19.6 17.6 85 1.6 SE 17 20 9 11 1015.7 1010.8 4.4
26/12:00am 20.5 19.3 17.1 81 2.1 ESE 19 22 10 12 1017.1 1012.3 4.4
 
Date/Time
WST
Temp
°C
App
Temp
°C
Dew
Point
Rel
Hum
%
Delta-T
°C
Wind Press
QNH
hPa
Press
MSL
hPa
Rain
since 9 am
mm
Dir
 
Spd
km/h
Gust
km/h
Spd
kts
Gust
kts
25/11:38pm 20.1 20.4 17.1 83 1.9 S 11 20 6 11 1017.8 1013.0 3.8
25/11:30pm 20.1 19.4 17.3 84 1.8 S 17 26 9 14 1017.2 1012.4 3.6
25/11:22pm 20.1 17.5 16.9 82 2.0 SE 26 35 14 19 1016.5 1011.7 3.2
25/11:00pm 23.1 20.1 14.7 59 5.1 SSE 24 32 13 17 1016.5 1011.7 0.0
25/10:30pm 23.1 18.5 14.7 59 5.1 SE 32 48 17 26 1015.5 1010.7 0.0
25/10:00pm 23.7 20.6 14.4 56 5.6 SE 24 35 13 19 1016.0 1011.2 0.0
25/09:30pm 23.8 19.0 14.5 56 5.7 ESE 33 44 18 24 1014.6 1009.8 0.0
25/09:14pm 24.1 17.7 14.2 54 6.0 ESE 41 59 22 32 1013.7 1008.9 0.0
25/09:04pm 24.3 17.5 14.4 54 6.0 ESE 43 56 23 30 1013.3 1008.5 0.0
25/09:00pm 24.5 18.6 14.6 54 6.1 ESE 39 56 21 30 1013.0 1008.2 0.0
25/08:45pm 24.9 20.0 14.4 52 6.4 ESE 33 54 18 29 1012.8 1007.9 0.0
25/08:44pm 25.2 20.3 14.3 50 6.6 ESE 33 48 18 26 1012.8 1007.9 0.0
25/08:30pm 25.3 20.2 14.7 51 6.5 E 35 46 19 25 1012.7 1007.8 0.0
25/08:25pm 25.5 20.7 14.6 51 6.7 E 33 50 18 27 1012.7 1007.8 0.0
25/08:22pm 25.6 20.8 14.7 51 6.7 E 33 50 18 27 1012.7 1007.8 0.0
25/08:00pm 26.4 21.8 14.5 48 7.3 ESE 32 50 17 27 1012.6 1007.7 0.0
25/07:38pm 26.9 22.1 14.6 46 7.6 ESE 33 54 18 29 1012.1 1007.3 0.0
25/07:30pm 27.2 20.9 14.6 46 7.8 ESE 41 54 22 29 1012.3 1007.4 0.0
25/07:20pm 27.6 21.6 14.3 44 8.2 ESE 39 57 21 31 1012.0 1007.2 0.0
25/07:00pm 29.6 24.0 12.1 34 10.5 ESE 33 46 18 25 1011.5 1006.7 0.0
25/06:30pm 31.0 25.5 10.4 28 12.1 ENE 30 39 16 21 1010.7 1005.8 0.0
25/06:03pm 30.6 24.8 11.5 30 11.4 NE 33 52 18 28 1010.1 1005.3 0.0
25/06:00pm 31.0 25.2 10.9 29 11.9 NE 32 44 17 24 1010.1 1005.3 0.0
25/05:48pm 32.4 27.1 9.9 25 13.2 N 28 46 15 25 1010.3 1005.5 0.0
25/05:30pm 33.6 29.7 9.6 23 14.1 SE 20 26 11 14 1008.6 1003.8 0.0
25/05:00pm 33.1 29.3 9.2 23 13.9 NNW 19 26 10 14 1009.5 1004.6 0.0
25/04:30pm 35.2 30.8 8.9 20 15.4 NW 22 33 12 18 1009.4 1004.5 0.0
25/04:00pm 36.1 32.8 8.0 18 16.3 NW 15 20 8 11 1009.1 1004.2 0.0
25/03:30pm 37.0 34.4 7.9 17 16.9 N 11 19 6 10 1009.0 1004.1 0.0
25/03:00pm 37.6 34.2 7.5 16 17.4 NNE 15 30 8 16 1009.3 1004.4 0.0
25/02:30pm 37.5 34.4 7.4 16 17.4 NNE 13 19 7 10 1009.9 1005.0 0.0
25/02:00pm 39.0 34.3 7.7 15 18.3 ENE 22 30 12 16 1010.3 1005.5 0.0
25/01:30pm 37.9 32.8 7.7 16 17.5 ENE 24 28 13 15 1010.9 1006.0 0.0
25/01:00pm 37.7 35.4 7.6 16 17.4 N 9 17 5 9 1011.4 1006.5 0.0
25/12:30pm 36.7 33.3 7.7 17 16.7 E 15 24 8 13 1011.7 1006.9 0.0
25/12:00pm 37.0 32.7 7.9 17 16.9 NNE 20 30 11 16 1012.3 1007.4 0.0
25/11:30am 36.2 32.0 8.1 18 16.3 ENE 20 32 11 17 1012.8 1007.9 0.0
25/11:00am 35.3 31.8 8.9 20 15.4 NE 17 28 9 15 1013.1 1008.3 0.0
25/10:30am 34.7 30.4 9.2 21 14.9 E 22 33 12 18 1013.5 1008.7 0.0
25/10:00am 34.2 30.3 9.4 22 14.5 ENE 20 33 11 18 1013.8 1009.0 0.0
25/09:30am 33.4 28.0 9.4 23 14.0 E 28 33 15 18 1014.0 1009.1 0.0
25/09:00am 32.3 26.4 9.2 24 13.4 E 30 37 16 20 1014.1 1009.2 0.0
25/08:30am 31.6 25.4 9.2 25 12.9 E 32 43 17 23 1014.0 1009.1 0.0
25/08:00am 30.7 24.9 9.6 27 12.2 E 30 39 16 21 1014.0 1009.1 0.0
25/07:30am 30.3 26.3 10.3 29 11.7 E 22 35 12 19 1014.0 1009.1 0.0
25/07:00am 29.5 24.6 10.1 30 11.3 ESE 26 33 14 18 1014.0 1009.1 0.0
25/06:30am 28.2 24.6 9.9 32 10.5 SE 19 24 10 13 1013.8 1009.0 0.0
25/06:00am 27.2 26.0 10.4 35 9.7 SSE 7 13 4 7 1013.5 1008.7 0.0
25/05:30am 24.1 23.7 9.7 40 8.1 SSW 2 7 1 4 1013.3 1008.5 0.0
25/05:00am 24.0 23.6 9.6 40 8.1 SSW 2 6 1 3 1012.9 1008.0 0.0
25/04:30am 25.2 25.0 9.1 36 9.0 CALM 0 6 0 3 1012.6 1007.7 0.0
25/04:00am 25.4 24.8 8.8 35 9.3 E 2 7 1 4 1012.1 1007.3 0.0
25/03:30am 26.7 24.4 9.1 33 9.9 SE 11 17 6 9 1012.0 1007.2 0.0
25/03:00am 27.5 23.9 8.4 30 10.7 SE 17 20 9 11 1011.9 1007.1 0.0
25/02:30am 27.8 24.4 7.6 28 11.2 S 15 20 8 11 1011.8 1007.0 0.0
25/02:00am 27.6 24.6 7.5 28 11.1 S 13 17 7 9 1011.7 1006.9 0.0
25/01:30am 27.6 24.4 6.9 27 11.3 SSW 13 13 7 7 1011.8 1007.0 0.0
25/01:00am 28.6 26.1 6.7 25 12.0 SSW 9 17 5 9 1012.0 1007.2 0.0
25/12:30am 29.3 26.1 6.7 24 12.4 S 13 17 7 9 1012.1 1007.3 0.0
25/12:00am 30.0 25.6 6.6 23 12.9 S 19 20 10 11 1012.3 1007.4 0.0
 
Date/Time
WST
Temp
°C
App
Temp
°C
Dew
Point
Rel
Hum
%
Delta-T
°C
Wind Press
QNH
hPa
Press
MSL
hPa
Rain
since 9 am
mm
Dir
 
Spd
km/h
Gust
km/h
Spd
kts
Gust
kts
24/11:30pm 29.0 27.0 7.0 25 12.1 SW 7 9 4 5 1012.4 1007.5 0.0
24/11:00pm 30.7 29.0 5.9 21 13.5 NW 4 17 2 9 1012.5 1007.6 0.0
24/10:30pm 29.7 27.3 7.0 24 12.5 NNE 9 11 5 6 1012.4 1007.5 0.0
24/10:00pm 30.1 28.0 6.7 23 12.9 NNE 7 9 4 5 1012.4 1007.5 0.0
24/09:30pm 30.6 28.1 6.5 22 13.3 NNE 9 11 5 6 1012.5 1007.6 0.0
24/09:00pm 32.0 29.4 6.2 20 14.2 NNE 9 13 5 7 1012.4 1007.5 0.0
24/08:30pm 32.2 28.9 6.4 20 14.3 NE 13 17 7 9 1012.3 1007.4 0.0
24/08:00pm 33.1 28.7 6.4 19 14.9 NNE 19 24 10 13 1012.0 1007.2 0.0
24/07:30pm 32.2 31.5 7.1 21 14.1 CALM 0 0 0 0 1011.6 1006.8 0.0
24/07:00pm 33.9 31.9 6.3 18 15.4 E 6 7 3 4 1011.2 1006.3 0.0
24/06:30pm 35.6 33.0 4.0 14 17.2 SE 7 9 4 5 1010.9 1006.0 0.0
24/06:00pm 36.4 32.5 3.6 13 17.8 ENE 13 17 7 9 1010.8 1005.9 0.0
24/05:30pm 37.3 34.3 4.3 13 18.2 E 9 20 5 11 1010.6 1005.7 0.0
24/05:00pm 36.7 33.3 3.8 13 17.9 NNE 11 17 6 9 1010.4 1005.6 0.0
24/04:30pm 37.5 35.3 3.3 12 18.6 SW 4 19 2 10 1010.4 1005.6 0.0
24/04:00pm 36.8 34.1 3.9 13 18.0 ENE 7 15 4 8 1010.6 1005.7 0.0
24/03:30pm 37.9 34.8 3.6 12 18.7 SW 9 17 5 9 1010.7 1005.8 0.0
24/03:00pm 36.7 33.6 3.8 13 17.9 NW 9 15 5 8 1011.1 1006.2 0.0
24/02:30pm 36.5 32.8 2.5 12 18.1 NNE 11 20 6 11 1011.4 1006.5 0.0
24/02:00pm 36.7 33.4 2.7 12 18.2 NNE 9 20 5 11 1011.7 1006.9 0.0
24/01:30pm 37.5 32.3 3.3 12 18.6 ENE 20 26 11 14 1012.0 1007.2 0.0
24/01:00pm 36.7 33.4 2.7 12 18.2 S 9 17 5 9 1012.5 1007.6 0.0
24/12:30pm 36.4 32.2 3.6 13 17.8 SE 15 30 8 16 1012.9 1008.0 0.0
24/12:00pm 36.1 30.9 3.3 13 17.7 E 20 26 11 14 1013.2 1008.4 0.0
24/11:30am 35.1 30.3 2.6 13 17.2 SSE 17 28 9 15 1013.6 1008.8 0.0
24/11:00am 35.7 30.6 3.0 13 17.5 E 19 28 10 15 1014.2 1009.3 0.0
24/10:30am 34.5 29.4 3.1 14 16.7 SE 19 32 10 17 1014.5 1009.7 0.0
24/10:00am 33.9 27.8 2.7 14 16.4 ESE 24 33 13 18 1014.8 1010.0 0.0
24/09:30am 33.4 27.4 3.3 15 16.0 ESE 24 35 13 19 1014.8 1010.0 0.0
24/09:00am 32.6 26.1 2.6 15 15.7 ESE 26 35 14 19 1014.9 1010.1 0.0
24/08:30am 31.8 24.2 2.9 16 15.1 SE 32 41 17 22 1014.8 1010.0 0.0
24/08:00am 31.3 24.2 3.4 17 14.7 ESE 30 41 16 22 1014.8 1010.0 0.0
24/07:30am 30.4 23.7 3.4 18 14.1 SE 28 39 15 21 1015.0 1010.2 0.0
24/07:00am 29.0 23.7 3.1 19 13.4 SE 20 28 11 15 1014.9 1010.1 0.0
24/06:30am 28.0 23.4 3.7 21 12.6 S 17 22 9 12 1014.8 1010.0 0.0
24/06:00am 26.6 22.9 4.4 24 11.5 S 13 15 7 8 1014.7 1009.9 0.0
24/05:30am 26.0 22.2 3.9 24 11.3 S 13 15 7 8 1014.3 1009.4 0.0
24/05:00am 24.9 22.6 4.6 27 10.5 WSW 6 9 3 5 1014.0 1009.1 0.0
24/04:30am 25.5 22.9 4.0 25 11.0 WSW 7 9 4 5 1013.5 1008.7 0.0
24/04:00am 26.4 23.4 4.2 24 11.5 WSW 9 13 5 7 1013.3 1008.5 0.0
24/03:30am 26.5 23.2 4.3 24 11.5 WSW 11 15 6 8 1013.1 1008.3 0.0
24/03:00am 26.8 23.0 4.0 23 11.8 WSW 13 17 7 9 1013.1 1008.3 0.0
24/02:30am 26.5 23.5 4.3 24 11.5 WSW 9 15 5 8 1013.1 1008.3 0.0
24/02:00am 27.1 24.1 4.2 23 11.9 WSW 9 13 5 7 1013.1 1008.3 0.0
24/01:30am 28.2 25.0 3.1 20 12.9 WSW 9 13 5 7 1013.0 1008.2 0.0
24/01:00am 29.5 24.7 2.7 18 13.8 SW 17 22 9 12 1013.0 1008.2 0.0
24/12:30am 29.8 24.8 3.7 19 13.7 SSW 19 24 10 13 1013.2 1008.4 0.0
24/12:00am 28.5 25.6 8.2 28 11.4 SW 13 15 7 8 1013.3 1008.5 0.0
 
Date/Time
WST
Temp
°C
App
Temp
°C
Dew
Point
Rel
Hum
%
Delta-T
°C
Wind Press
QNH
hPa
Press
MSL
hPa
Rain
since 9 am
mm
Dir
 
Spd
km/h
Gust
km/h
Spd
kts
Gust
kts
23/11:30pm 28.3 26.4 9.1 30 10.9 WSW 9 13 5 7 1013.3 1008.5 0.0

Other Formats:

Comma delimited format used in spreadsheet applications
http://www.bom.gov.au/fwo/IDW60801/IDW60801.99313.axf

JavaScript Object Notation format (JSON) in row-major order
http://www.bom.gov.au/fwo/IDW60801/IDW60801.99313.json